Time;durP1;ratioP1;P1;durP2;ratioP2;P2;SDS_P1;SDS_P2;PMS_P1;PMS_P2;Temp;Humidity;BMP_temperature;BMP_pressure;BME280_temperature;BME280_humidity;BME280_pressure;Samples;Min_cycle;Max_cycle;Signal;HPM_P1;HPM_P2
2023/10/22 00:00:07;;;;;;;7.60;1.58;;;19.00;99.90;;;;;;5093952;28;20046;-69
2023/10/22 00:02:37;;;;;;;8.82;1.80;;;19.00;99.90;;;;;;5094130;28;20068;-68
2023/10/22 00:05:05;;;;;;;9.93;1.63;;;19.00;99.90;;;;;;5093592;28;20547;-68
2023/10/22 00:07:31;;;;;;;9.50;1.48;;;19.10;99.90;;;;;;5093576;28;20116;-69
2023/10/22 00:09:57;;;;;;;10.88;1.70;;;19.10;99.90;;;;;;5075259;28;20032;-69
2023/10/22 00:12:24;;;;;;;7.72;1.42;;;19.30;99.90;;;;;;5092880;28;20032;-71
2023/10/22 00:14:50;;;;;;;12.52;1.52;;;19.40;99.90;;;;;;5093772;28;20066;-70
2023/10/22 00:17:16;;;;;;;7.80;1.38;;;19.50;99.90;;;;;;5093632;28;20035;-69
2023/10/22 00:19:42;;;;;;;7.25;1.63;;;19.50;99.90;;;;;;5093663;28;20028;-69
2023/10/22 00:22:10;;;;;;;10.57;1.70;;;19.50;99.90;;;;;;5093252;28;20074;-68
2023/10/22 00:24:37;;;;;;;6.60;1.40;;;19.50;99.90;;;;;;5074931;28;20028;-68
2023/10/22 00:27:04;;;;;;;6.88;1.50;;;19.50;99.90;;;;;;5093352;28;20020;-70
2023/10/22 00:29:30;;;;;;;10.93;1.50;;;19.40;99.90;;;;;;5093656;28;20043;-69
2023/10/22 00:31:56;;;;;;;10.73;1.80;;;19.50;99.90;;;;;;5093120;28;20020;-69
2023/10/22 00:34:22;;;;;;;9.27;1.60;;;19.40;99.90;;;;;;5093186;28;20028;-69
2023/10/22 00:36:48;;;;;;;12.07;1.58;;;19.40;99.90;;;;;;5093082;28;20341;-70
2023/10/22 00:39:14;;;;;;;8.82;1.63;;;19.40;99.90;;;;;;5093207;28;20028;-70
2023/10/22 00:41:41;;;;;;;6.97;1.58;;;19.40;99.90;;;;;;5092984;28;20052;-68
2023/10/22 00:44:07;;;;;;;9.38;1.75;;;19.40;99.90;;;;;;5092817;28;20036;-68
2023/10/22 00:46:33;;;;;;;5.95;1.27;;;19.40;99.90;;;;;;5092870;28;20168;-70
2023/10/22 00:49:00;;;;;;;10.93;1.70;;;19.40;99.90;;;;;;5093068;28;20020;-69
2023/10/22 00:51:26;;;;;;;11.45;1.58;;;19.40;99.90;;;;;;5092720;28;20028;-69
2023/10/22 00:53:52;;;;;;;;;;;19.40;99.90;;;;;;5093109;28;20107;-69
2023/10/22 00:56:20;;;;;;;8.93;1.40;;;19.50;99.90;;;;;;5093053;28;19935;-69
2023/10/22 00:58:47;;;;;;;10.50;1.60;;;19.50;99.90;;;;;;5092982;28;20027;-69
2023/10/22 01:01:13;;;;;;;;;;;19.50;99.90;;;;;;5075050;28;20028;-69
2023/10/22 01:03:39;;;;;;;8.20;1.58;;;19.50;99.90;;;;;;5092653;28;19914;-69
2023/10/22 01:06:06;;;;;;;8.10;1.25;;;19.40;99.90;;;;;;5092761;28;20030;-69
2023/10/22 01:08:33;;;;;;;9.98;1.60;;;19.30;99.90;;;;;;5092493;28;20024;-69
2023/10/22 01:11:07;;;;;;;8.15;1.80;;;19.30;99.90;;;;;;5092552;28;20024;-69
2023/10/22 01:13:34;;;;;;;15.30;2.10;;;19.20;99.90;;;;;;5092578;28;20024;-69
2023/10/22 01:16:00;;;;;;;10.35;1.60;;;19.30;99.90;;;;;;5092574;28;20406;-69
2023/10/22 01:18:26;;;;;;;12.25;1.38;;;19.30;99.90;;;;;;5092671;28;20389;-69
2023/10/22 01:20:52;;;;;;;11.02;1.88;;;19.20;99.90;;;;;;5092553;28;20023;-69
2023/10/22 01:23:18;;;;;;;10.07;1.77;;;19.20;99.90;;;;;;5091226;28;20024;-69
2023/10/22 01:25:44;;;;;;;11.07;1.45;;;19.30;99.90;;;;;;5092771;28;20065;-69
2023/10/22 01:28:10;;;;;;;9.32;1.80;;;19.20;99.90;;;;;;5092539;28;20349;-69
2023/10/22 01:30:36;;;;;;;14.05;1.70;;;19.20;99.90;;;;;;5092330;28;20028;-70
2023/10/22 01:33:03;;;;;;;8.90;1.60;;;19.20;99.90;;;;;;5092333;28;20023;-69
2023/10/22 01:35:29;;;;;;;10.98;1.92;;;19.30;99.90;;;;;;5092374;28;20085;-70
2023/10/22 01:37:55;;;;;;;5.50;1.53;;;19.20;99.90;;;;;;5073819;28;20054;-69
2023/10/22 01:40:21;;;;;;;10.90;1.60;;;19.20;99.90;;;;;;5092115;28;20285;-69
2023/10/22 01:42:47;;;;;;;11.05;1.80;;;19.20;99.90;;;;;;5092341;28;20036;-69
2023/10/22 01:45:13;;;;;;;6.72;1.30;;;19.10;99.90;;;;;;5092110;28;20479;-69
2023/10/22 01:47:39;;;;;;;8.93;2.13;;;19.10;99.90;;;;;;5092234;28;20020;-69
2023/10/22 01:50:06;;;;;;;11.43;1.80;;;19.20;99.90;;;;;;5092171;28;20032;-69
2023/10/22 01:52:32;;;;;;;9.32;1.35;;;19.20;99.90;;;;;;5091756;28;20615;-70
2023/10/22 01:54:59;;;;;;;11.38;1.88;;;19.20;99.90;;;;;;5091932;28;20023;-69
2023/10/22 01:57:25;;;;;;;10.95;1.67;;;19.20;99.90;;;;;;5073539;28;20059;-71
2023/10/22 01:59:51;;;;;;;11.52;1.85;;;19.20;99.90;;;;;;5091892;28;20031;-69
2023/10/22 02:02:17;;;;;;;8.63;1.48;;;19.20;99.90;;;;;;5091895;28;20028;-69
2023/10/22 02:04:43;;;;;;;9.48;1.70;;;19.20;99.90;;;;;;5091490;28;20028;-69
2023/10/22 02:07:10;;;;;;;8.13;1.38;;;19.20;99.90;;;;;;5091348;28;20056;-69
2023/10/22 02:09:37;;;;;;;14.68;1.58;;;19.30;99.90;;;;;;5091530;28;20423;-69
2023/10/22 02:12:04;;;;;;;7.35;1.50;;;19.30;99.90;;;;;;5091523;28;20148;-69
2023/10/22 02:14:30;;;;;;;10.38;1.33;;;19.40;99.90;;;;;;5073207;28;20095;-69
2023/10/22 02:16:56;;;;;;;10.95;2.13;;;19.40;99.90;;;;;;5091657;28;20047;-69
2023/10/22 02:19:22;;;;;;;9.13;1.60;;;19.50;99.90;;;;;;5091815;28;20678;-67
2023/10/22 02:21:48;;;;;;;13.90;2.03;;;19.50;99.90;;;;;;5091997;28;20020;-69
2023/10/22 02:24:14;;;;;;;8.05;1.13;;;19.60;99.90;;;;;;5091281;28;20495;-70
2023/10/22 02:26:40;;;;;;;8.88;1.23;;;19.60;99.90;;;;;;5091454;28;20035;-69
2023/10/22 02:29:07;;;;;;;;;;;19.70;99.90;;;;;;5091889;28;20031;-69
2023/10/22 02:31:33;;;;;;;11.70;1.60;;;19.70;99.90;;;;;;5073535;28;19905;-70
2023/10/22 02:34:06;;;;;;;10.13;1.52;;;19.70;99.90;;;;;;5091434;28;20020;-69
2023/10/22 02:36:33;;;;;;;11.50;1.60;;;19.70;99.90;;;;;;5091768;28;20027;-69
2023/10/22 02:38:59;;;;;;;4.43;1.20;;;19.70;99.90;;;;;;5091268;28;20070;-69
2023/10/22 02:41:26;;;;;;;;;;;19.60;99.90;;;;;;5091634;28;20071;-69
2023/10/22 02:43:52;;;;;;;12.25;1.40;;;19.60;99.90;;;;;;5090998;28;20025;-69
2023/10/22 02:46:18;;;;;;;9.38;1.52;;;19.70;99.90;;;;;;5091119;28;20021;-69
2023/10/22 02:48:44;;;;;;;12.85;1.77;;;19.70;99.90;;;;;;5091098;28;20107;-70
2023/10/22 02:51:10;;;;;;;6.88;1.65;;;19.70;99.90;;;;;;5091053;28;20063;-69
2023/10/22 02:53:38;;;;;;;7.65;1.55;;;19.70;99.90;;;;;;5090746;28;20020;-70
2023/10/22 02:56:04;;;;;;;9.23;1.63;;;19.70;99.90;;;;;;5090737;28;20028;-68
2023/10/22 02:58:30;;;;;;;13.35;1.77;;;19.60;99.90;;;;;;5091199;28;20025;-68
2023/10/22 03:01:10;;;;;;;6.78;1.48;;;19.50;99.90;;;;;;5090853;28;20035;-68
2023/10/22 03:03:40;;;;;;;9.57;1.58;;;19.50;99.90;;;;;;5091276;28;20084;-69
2023/10/22 03:06:08;;;;;;;11.10;1.85;;;19.50;99.90;;;;;;5091067;28;20054;-68
2023/10/22 03:08:36;;;;;;;7.20;1.63;;;19.50;99.90;;;;;;5090915;28;20487;-69
2023/10/22 03:11:03;;;;;;;14.13;1.60;;;19.50;99.90;;;;;;5091035;28;20032;-69
2023/10/22 03:13:29;;;;;;;;;;;19.50;99.90;;;;;;5091836;28;20023;-69
2023/10/22 03:15:57;;;;;;;7.60;1.58;;;19.50;99.90;;;;;;5091054;28;19911;-68
2023/10/22 03:18:24;;;;;;;9.15;1.77;;;19.60;99.90;;;;;;5090949;28;20054;-69
2023/10/22 03:20:50;;;;;;;5.53;1.40;;;19.60;99.90;;;;;;5090877;28;20192;-70
2023/10/22 03:23:17;;;;;;;7.75;1.60;;;19.70;99.90;;;;;;5090907;28;20376;-69
2023/10/22 03:25:43;;;;;;;7.28;1.25;;;19.70;99.90;;;;;;5090722;28;20032;-69
2023/10/22 03:28:10;;;;;;;8.45;1.52;;;19.70;99.90;;;;;;5090845;28;20020;-69
2023/10/22 03:30:39;;;;;;;5.70;1.10;;;19.70;99.90;;;;;;5091227;28;20028;-69
2023/10/22 03:33:06;;;;;;;8.68;1.20;;;19.80;99.90;;;;;;5072501;28;20028;-69
2023/10/22 03:35:35;;;;;;;14.30;2.15;;;19.70;99.90;;;;;;5090849;28;20062;-69
2023/10/22 03:38:02;;;;;;;7.00;1.70;;;19.70;99.90;;;;;;5090955;28;20028;-69
2023/10/22 03:40:31;;;;;;;9.20;1.20;;;19.70;99.90;;;;;;5090695;28;20059;-69
2023/10/22 03:42:57;;;;;;;14.15;1.67;;;19.70;99.90;;;;;;5090752;28;20161;-69
2023/10/22 03:45:23;;;;;;;11.32;1.27;;;19.70;99.90;;;;;;5090728;28;20078;-70
2023/10/22 03:47:49;;;;;;;11.10;1.52;;;19.70;99.90;;;;;;5094316;28;20027;-69
2023/10/22 03:50:16;;;;;;;11.10;1.70;;;19.70;99.90;;;;;;5094243;28;20496;-69
2023/10/22 03:52:42;;;;;;;7.45;1.50;;;19.70;99.90;;;;;;5094128;28;20021;-69
2023/10/22 03:55:08;;;;;;;9.50;1.65;;;19.80;99.90;;;;;;5094417;28;20024;-69
2023/10/22 03:57:34;;;;;;;12.75;1.40;;;19.80;99.90;;;;;;5094233;28;20020;-71
2023/10/22 04:00:00;;;;;;;8.90;1.17;;;19.80;99.90;;;;;;5093875;28;20032;-68
2023/10/22 04:02:26;;;;;;;9.85;1.75;;;19.80;99.90;;;;;;5093942;28;20032;-68
2023/10/22 04:04:52;;;;;;;10.18;1.63;;;19.80;99.90;;;;;;5093928;28;20028;-69
2023/10/22 04:07:18;;;;;;;12.45;1.65;;;19.80;99.90;;;;;;5075381;28;20035;-70
2023/10/22 04:09:44;;;;;;;10.68;1.50;;;19.80;99.90;;;;;;5075874;28;20020;-69
2023/10/22 04:12:10;;;;;;;12.50;1.83;;;19.80;99.90;;;;;;5093858;28;20024;-70
2023/10/22 04:14:36;;;;;;;11.80;1.40;;;19.70;99.90;;;;;;5075588;28;20278;-69
2023/10/22 04:17:02;;;;;;;7.32;1.40;;;19.70;99.90;;;;;;5093982;28;20020;-69
2023/10/22 04:19:28;;;;;;;8.75;1.50;;;19.70;99.90;;;;;;5094003;28;20570;-69
2023/10/22 04:21:54;;;;;;;7.45;1.55;;;19.70;99.90;;;;;;5094110;28;20051;-70
2023/10/22 04:24:20;;;;;;;10.32;1.85;;;19.70;99.90;;;;;;5093331;28;20109;-69
2023/10/22 04:26:46;;;;;;;6.97;1.15;;;19.70;99.90;;;;;;5075140;28;20028;-69
2023/10/22 04:29:12;;;;;;;9.48;1.73;;;19.50;99.90;;;;;;5093690;28;20031;-69
2023/10/22 04:31:38;;;;;;;9.35;1.45;;;19.40;99.90;;;;;;5093792;28;20020;-69
2023/10/22 04:34:04;;;;;;;8.80;1.80;;;19.30;99.90;;;;;;5075152;28;20334;-70
2023/10/22 04:36:30;;;;;;;7.93;1.70;;;19.10;99.90;;;;;;5093843;28;20055;-69
2023/10/22 04:38:56;;;;;;;8.20;1.48;;;19.00;99.90;;;;;;5093172;28;20020;-69
2023/10/22 04:41:22;;;;;;;8.57;1.90;;;18.90;99.90;;;;;;5093286;28;20047;-69
2023/10/22 04:43:48;;;;;;;8.73;1.45;;;18.90;99.90;;;;;;5093479;28;20285;-69
2023/10/22 04:46:15;;;;;;;9.75;1.45;;;18.90;99.90;;;;;;5093688;28;20027;-69
2023/10/22 04:48:41;;;;;;;8.30;1.20;;;18.90;99.90;;;;;;5093474;28;20050;-69
2023/10/22 04:51:08;;;;;;;8.02;1.40;;;18.90;99.90;;;;;;5074714;28;20024;-69
2023/10/22 04:53:36;;;;;;;7.63;1.48;;;18.90;99.90;;;;;;5092965;28;20043;-70
2023/10/22 04:56:04;;;;;;;9.82;1.52;;;18.90;99.90;;;;;;5093008;28;20016;-69
2023/10/22 04:58:32;;;;;;;11.18;1.40;;;19.00;99.90;;;;;;5092755;28;20500;-69
2023/10/22 05:00:59;;;;;;;10.25;1.42;;;19.00;99.90;;;;;;5093028;28;20016;-69
2023/10/22 05:03:25;;;;;;;11.00;1.42;;;19.00;99.90;;;;;;5092914;28;20024;-70
2023/10/22 05:05:51;;;;;;;6.90;1.30;;;19.00;99.90;;;;;;5093012;28;20036;-70
2023/10/22 05:08:17;;;;;;;8.43;1.55;;;19.00;99.90;;;;;;5093011;28;20131;-70
2023/10/22 05:10:43;;;;;;;9.63;1.55;;;19.00;99.90;;;;;;5092744;28;20023;-69
2023/10/22 05:13:10;;;;;;;9.98;1.50;;;19.00;99.90;;;;;;5092929;28;20077;-70
2023/10/22 05:15:36;;;;;;;7.28;1.50;;;19.10;99.90;;;;;;5092694;28;20024;-70
2023/10/22 05:18:09;;;;;;;10.52;1.58;;;19.10;99.90;;;;;;5092811;28;20030;-69
2023/10/22 05:20:35;;;;;;;12.40;1.63;;;19.20;99.90;;;;;;5092839;28;20035;-69
2023/10/22 05:23:07;;;;;;;12.48;1.58;;;19.20;99.90;;;;;;5092200;28;20073;-70
2023/10/22 05:25:33;;;;;;;10.35;1.60;;;19.20;99.90;;;;;;5092167;28;20416;-69
2023/10/22 05:27:59;;;;;;;11.02;1.90;;;19.20;99.90;;;;;;5092227;28;20020;-69
2023/10/22 05:30:25;;;;;;;9.32;1.60;;;19.30;99.90;;;;;;5092162;28;20024;-69
2023/10/22 05:32:51;;;;;;;13.73;1.60;;;19.30;99.90;;;;;;5092301;28;20034;-69
2023/10/22 05:35:17;;;;;;;9.57;1.60;;;19.40;99.90;;;;;;5092341;28;20112;-70
2023/10/22 05:37:43;;;;;;;12.50;1.77;;;19.60;99.90;;;;;;5092313;28;20068;-68
2023/10/22 05:40:11;;;;;;;12.23;1.98;;;19.60;99.90;;;;;;5073597;28;20115;-69
2023/10/22 05:42:38;;;;;;;10.55;1.70;;;19.60;99.90;;;;;;5091937;28;20096;-70
2023/10/22 05:45:06;;;;;;;13.10;2.08;;;19.70;99.90;;;;;;5091859;28;20067;-68
2023/10/22 05:47:32;;;;;;;13.07;1.88;;;19.80;99.90;;;;;;5092206;28;20020;-69
2023/10/22 05:49:59;;;;;;;9.82;1.80;;;20.00;99.90;;;;;;5091929;28;20036;-69
2023/10/22 05:52:26;;;;;;;12.65;2.05;;;20.50;99.90;;;;;;5091747;28;20492;-69
2023/10/22 05:54:52;;;;;;;11.18;1.85;;;21.20;99.90;;;;;;5057072;28;20088;-70
2023/10/22 05:57:21;;;;;;;13.02;2.13;;;21.70;99.90;;;;;;5092388;28;20020;-70
2023/10/22 05:59:49;;;;;;;10.90;1.92;;;22.30;99.90;;;;;;5073399;28;20080;-70
2023/10/22 06:02:15;;;;;;;10.35;1.80;;;22.40;99.90;;;;;;5091935;28;20039;-70
2023/10/22 06:04:41;;;;;;;14.13;2.03;;;22.90;99.90;;;;;;5091463;28;20371;-71
2023/10/22 06:07:07;;;;;;;11.02;2.08;;;23.30;99.90;;;;;;5091875;28;20460;-71
2023/10/22 06:09:36;;;;;;;12.00;1.63;;;23.80;99.90;;;;;;5090812;28;20028;-69
2023/10/22 06:12:03;;;;;;;8.93;1.70;;;24.10;99.90;;;;;;5091379;28;20030;-69
2023/10/22 06:14:29;;;;;;;6.47;1.38;;;24.40;99.90;;;;;;5091519;28;20395;-70
2023/10/22 06:16:55;;;;;;;7.75;1.67;;;24.20;99.90;;;;;;5091660;28;20107;-69
2023/10/22 06:19:21;;;;;;;9.95;1.60;;;23.70;99.90;;;;;;5091797;28;20032;-69
2023/10/22 06:21:47;;;;;;;10.50;1.75;;;23.50;99.90;;;;;;5092111;28;20460;-69
2023/10/22 06:24:13;;;;;;;7.78;1.45;;;23.20;99.90;;;;;;5091727;28;20031;-70
2023/10/22 06:26:40;;;;;;;9.65;1.60;;;23.50;99.90;;;;;;5073757;28;20094;-70
2023/10/22 06:29:06;;;;;;;10.10;1.45;;;24.20;99.90;;;;;;5091491;28;20043;-69
2023/10/22 06:31:32;;;;;;;9.98;1.65;;;24.80;99.90;;;;;;5091645;28;20024;-70
2023/10/22 06:33:58;;;;;;;10.95;1.60;;;25.20;99.90;;;;;;5073448;28;20032;-71
2023/10/22 06:36:25;;;;;;;7.63;1.58;;;25.40;99.90;;;;;;5091630;28;20055;-69
2023/10/22 06:38:51;;;;;;;11.35;1.83;;;25.80;99.90;;;;;;5091592;28;20040;-69
2023/10/22 06:41:25;;;;;;;8.25;1.50;;;25.60;99.90;;;;;;5091601;28;20551;-68
2023/10/22 06:43:52;;;;;;;12.60;1.80;;;26.30;99.90;;;;;;5091385;28;20035;-69
2023/10/22 06:46:18;;;;;;;;;;;26.40;99.90;;;;;;5073806;28;20040;-69
2023/10/22 06:48:44;;;;;;;10.25;1.92;;;26.60;99.90;;;;;;5091688;28;19949;-70
2023/10/22 06:51:12;;;;;;;5.90;1.27;;;26.40;99.90;;;;;;5091832;28;20016;-71
2023/10/22 06:53:38;;;;;;;7.60;1.60;;;25.30;99.90;;;;;;5091670;28;20024;-71
2023/10/22 06:56:05;;;;;;;9.68;1.85;;;25.20;99.90;;;;;;5091627;28;20028;-70
2023/10/22 06:58:32;;;;;;;9.70;1.73;;;25.40;99.90;;;;;;5091773;28;20357;-70
2023/10/22 07:01:10;;;;;;;11.15;1.80;;;25.00;99.90;;;;;;5091280;28;20093;-70
2023/10/22 07:03:39;;;;;;;9.80;1.95;;;25.00;99.90;;;;;;5091882;28;20027;-69
2023/10/22 07:06:05;;;;;;;9.07;1.60;;;25.80;99.90;;;;;;5091521;28;20027;-70
2023/10/22 07:08:31;;;;;;;13.95;2.10;;;26.60;99.90;;;;;;5091389;28;20039;-70
2023/10/22 07:10:57;;;;;;;;;;;27.10;99.90;;;;;;5091609;28;20546;-70
2023/10/22 07:13:27;;;;;;;8.30;1.70;;;26.60;99.90;;;;;;5091463;28;19946;-70
2023/10/22 07:15:53;;;;;;;13.90;1.92;;;25.90;99.90;;;;;;5091476;28;20024;-70
2023/10/22 07:18:20;;;;;;;13.38;2.03;;;25.20;99.90;;;;;;5073077;28;20024;-70
2023/10/22 07:20:47;;;;;;;13.43;2.50;;;25.10;99.90;;;;;;5093414;28;20024;-70
2023/10/22 07:23:13;;;;;;;8.95;2.10;;;25.20;99.90;;;;;;5076717;28;20111;-70
2023/10/22 07:25:39;;;;;;;12.82;2.15;;;25.20;99.90;;;;;;5076378;28;20081;-69
2023/10/22 07:28:06;;;;;;;18.98;2.30;;;24.90;99.90;;;;;;5095209;28;20074;-70
2023/10/22 07:30:32;;;;;;;10.93;2.20;;;25.20;99.90;;;;;;5076643;28;20032;-70
2023/10/22 07:32:59;;;;;;;15.07;1.90;;;24.90;99.90;;;;;;5095099;28;20215;-71
2023/10/22 07:35:25;;;;;;;;;;;25.20;99.90;;;;;;5095713;28;20078;-71
2023/10/22 07:37:50;;;;;;;;;;;26.10;99.90;;;;;;5095122;28;19912;-70
2023/10/22 07:40:20;;;;;;;8.68;1.80;;;26.70;99.90;;;;;;5094982;28;20441;-70
2023/10/22 07:42:49;;;;;;;9.77;1.75;;;26.50;99.90;;;;;;5094640;28;20043;-70
2023/10/22 07:45:16;;;;;;;9.38;1.85;;;26.80;99.90;;;;;;5094620;28;20036;-68
2023/10/22 07:47:42;;;;;;;;;;;26.70;99.90;;;;;;5076702;28;20028;-69
2023/10/22 07:50:08;;;;;;;;;;;26.50;99.90;;;;;;5094896;28;20206;-69
2023/10/22 07:52:37;;;;;;;10.50;1.88;;;26.30;99.90;;;;;;5094447;28;19904;-68
2023/10/22 07:55:06;;;;;;;8.75;1.88;;;26.40;99.90;;;;;;5094792;28;20020;-70
2023/10/22 07:57:32;;;;;;;10.13;1.95;;;26.30;99.90;;;;;;5076261;28;20452;-70
2023/10/22 07:59:58;;;;;;;8.88;1.83;;;26.50;99.90;;;;;;5094661;28;20020;-70
2023/10/22 08:02:24;;;;;;;7.97;1.70;;;26.90;99.90;;;;;;5094517;28;20020;-71
2023/10/22 08:04:51;;;;;;;8.00;1.50;;;26.60;99.90;;;;;;5094376;28;20435;-70
2023/10/22 08:07:19;;;;;;;9.38;1.85;;;26.60;99.90;;;;;;5094318;28;20024;-70
2023/10/22 08:09:46;;;;;;;13.75;2.38;;;26.60;99.90;;;;;;5093965;28;20430;-70
2023/10/22 08:12:12;;;;;;;;;;;26.70;99.90;;;;;;5094487;28;20039;-71
2023/10/22 08:14:38;;;;;;;13.75;1.90;;;26.50;99.90;;;;;;5094532;28;19974;-70
2023/10/22 08:17:04;;;;;;;12.13;1.98;;;26.50;99.90;;;;;;5094296;28;20460;-71
2023/10/22 08:19:30;;;;;;;16.25;1.65;;;26.50;99.90;;;;;;5094654;28;20020;-69
2023/10/22 08:21:56;;;;;;;9.98;1.98;;;26.80;99.90;;;;;;5094576;28;20134;-69
2023/10/22 08:24:22;;;;;;;8.98;1.77;;;26.80;99.90;;;;;;5093968;28;20029;-70
2023/10/22 08:26:48;;;;;;;11.38;1.60;;;27.00;99.90;;;;;;5094140;28;20028;-70
2023/10/22 08:29:14;;;;;;;18.15;2.20;;;26.60;99.90;;;;;;5094265;28;20024;-70
2023/10/22 08:31:40;;;;;;;9.25;1.80;;;26.70;99.90;;;;;;5093897;28;20337;-71
2023/10/22 08:34:06;;;;;;;7.43;1.70;;;26.80;99.90;;;;;;5093937;28;20032;-69
2023/10/22 08:36:35;;;;;;;9.57;1.98;;;26.10;99.90;;;;;;5094065;28;20028;-71
2023/10/22 08:39:02;;;;;;;9.43;2.08;;;26.60;99.90;;;;;;5093910;28;20027;-69
2023/10/22 08:41:47;;;;;;;11.90;1.85;;;26.10;99.90;;;;;;5093933;28;20130;-71
2023/10/22 08:44:15;;;;;;;11.10;1.90;;;26.10;99.90;;;;;;5094455;28;20036;-70
2023/10/22 08:46:42;;;;;;;15.40;2.20;;;26.50;99.90;;;;;;5094306;28;20020;-70
2023/10/22 08:49:09;;;;;;;13.07;2.40;;;26.70;99.90;;;;;;5093584;28;20464;-70
2023/10/22 08:51:35;;;;;;;13.27;2.55;;;26.90;99.90;;;;;;5093908;28;20020;-71
2023/10/22 08:54:04;;;;;;;14.07;2.38;;;26.60;99.90;;;;;;5093571;28;20095;-70
2023/10/22 08:56:31;;;;;;;8.80;2.15;;;26.60;99.90;;;;;;5075185;28;20020;-70
2023/10/22 08:59:08;;;;;;;16.08;2.30;;;26.70;99.90;;;;;;5074991;28;20111;-70
2023/10/22 09:01:34;;;;;;;11.30;2.25;;;26.80;99.90;;;;;;5093290;28;20028;-69
2023/10/22 09:04:01;;;;;;;17.88;2.45;;;27.00;99.90;;;;;;5093560;28;20097;-69
2023/10/22 09:06:27;;;;;;;16.52;2.63;;;26.80;99.90;;;;;;5074830;28;20047;-69
2023/10/22 09:08:54;;;;;;;12.55;2.50;;;26.50;99.90;;;;;;5074734;28;20111;-70
2023/10/22 09:11:20;;;;;;;14.27;2.20;;;26.50;99.90;;;;;;5093569;28;20032;-70
2023/10/22 09:13:47;;;;;;;16.85;2.67;;;26.30;99.90;;;;;;5093421;28;20020;-70
2023/10/22 09:16:29;;;;;;;13.70;2.88;;;26.00;99.90;;;;;;5093519;28;20024;-70
2023/10/22 09:18:55;;;;;;;20.58;7.05;;;26.20;99.90;;;;;;5074685;28;20385;-70
2023/10/22 09:21:21;;;;;;;;;;;26.50;99.90;;;;;;5093481;28;20027;-70
2023/10/22 09:24:02;;;;;;;;;;;26.60;99.90;;;;;;5092662;28;19911;-70
2023/10/22 09:26:45;;;;;;;18.77;5.90;;;26.60;99.90;;;;;;5092347;28;20042;-70
2023/10/22 09:29:11;;;;;;;11.00;1.90;;;26.80;99.90;;;;;;5092321;28;20107;-70
2023/10/22 09:31:38;;;;;;;11.65;2.80;;;26.70;99.90;;;;;;5092374;28;20036;-70
2023/10/22 09:34:22;;;;;;;14.93;2.38;;;26.70;99.90;;;;;;5092843;28;20076;-70
2023/10/22 09:36:55;;;;;;;23.38;3.42;;;26.50;99.90;;;;;;5092727;28;20107;-69
2023/10/22 09:39:43;;;;;;;17.05;2.80;;;26.60;99.90;;;;;;5092364;28;20024;-70
2023/10/22 09:42:10;;;;;;;18.40;3.08;;;26.70;99.90;;;;;;5092463;28;20368;-69
2023/10/22 09:44:39;;;;;;;14.32;2.85;;;26.70;99.90;;;;;;5091318;28;20077;-69
2023/10/22 09:47:08;;;;;;;24.45;3.05;;;26.90;99.90;;;;;;5092319;28;20024;-69
2023/10/22 09:49:37;;;;;;;13.25;2.03;;;26.70;99.90;;;;;;5092788;28;20024;-68
2023/10/22 09:52:06;;;;;;;17.25;2.38;;;26.50;99.90;;;;;;5074056;28;20031;-68
2023/10/22 09:54:39;;;;;;;11.32;2.30;;;26.60;99.90;;;;;;5091921;28;20387;-68
2023/10/22 09:57:15;;;;;;;14.30;2.00;;;26.50;99.90;;;;;;5092378;28;20092;-69
2023/10/22 09:59:42;;;;;;;21.15;2.60;;;26.60;99.90;;;;;;5073980;28;20027;-70
2023/10/22 10:02:15;;;;;;;13.70;2.30;;;26.80;99.90;;;;;;5092326;28;20054;-71
2023/10/22 10:04:43;;;;;;;16.48;2.30;;;26.50;99.90;;;;;;5092069;28;20039;-69
2023/10/22 10:07:10;;;;;;;12.13;2.00;;;26.50;99.90;;;;;;5092389;28;20559;-70
2023/10/22 10:09:36;;;;;;;;;;;26.60;99.90;;;;;;5092223;28;20020;-69
2023/10/22 10:12:08;;;;;;;20.35;2.58;;;26.70;99.90;;;;;;5074107;28;19908;-70
2023/10/22 10:14:38;;;;;;;15.93;2.60;;;26.90;99.90;;;;;;5092619;28;20099;-69
2023/10/22 10:17:04;;;;;;;10.48;2.20;;;26.60;99.90;;;;;;5092443;28;20530;-69
2023/10/22 10:19:30;;;;;;;16.35;2.58;;;26.80;99.90;;;;;;5092115;28;20115;-70
2023/10/22 10:21:57;;;;;;;37.10;3.95;;;27.00;99.90;;;;;;5092179;28;20132;-69
2023/10/22 10:24:24;;;;;;;11.27;1.95;;;26.80;99.90;;;;;;5091635;28;20032;-69
2023/10/22 10:26:52;;;;;;;15.80;2.20;;;26.50;99.90;;;;;;5073539;28;20112;-69
2023/10/22 10:29:23;;;;;;;13.70;2.53;;;26.60;99.90;;;;;;5091863;28;20500;-69
2023/10/22 10:31:53;;;;;;;15.00;2.05;;;26.60;99.90;;;;;;5092201;28;20479;-69
2023/10/22 10:34:36;;;;;;;17.52;2.20;;;26.50;99.90;;;;;;5073793;28;20079;-69
2023/10/22 10:37:13;;;;;;;15.63;2.45;;;26.40;99.90;;;;;;5092067;28;20036;-70
2023/10/22 10:39:43;;;;;;;14.32;1.98;;;26.10;99.90;;;;;;5091684;28;20020;-70
2023/10/22 10:42:10;;;;;;;10.43;2.22;;;26.20;99.90;;;;;;5091547;28;20119;-69
2023/10/22 10:44:58;;;;;;;13.98;2.10;;;26.50;99.90;;;;;;5091611;28;20032;-69
2023/10/22 10:47:32;;;;;;;17.08;2.50;;;26.50;99.90;;;;;;5092026;28;20031;-69
2023/10/22 10:50:02;;;;;;;11.52;1.73;;;26.50;99.90;;;;;;5092088;28;20055;-70
2023/10/22 10:52:35;;;;;;;14.48;3.10;;;26.70;99.90;;;;;;5091837;28;20017;-69
2023/10/22 10:55:27;;;;;;;22.48;3.05;;;26.80;99.90;;;;;;5092415;28;20099;-70
2023/10/22 10:57:55;;;;;;;17.08;2.58;;;26.90;99.90;;;;;;5096097;28;20484;-70
2023/10/22 11:00:26;;;;;;;17.98;2.22;;;27.30;99.90;;;;;;5095962;28;20099;-70
2023/10/22 11:02:54;;;;;;;16.50;1.98;;;27.30;99.90;;;;;;5095739;28;20036;-70
2023/10/22 11:05:39;;;;;;;18.60;2.65;;;27.40;99.90;;;;;;5095602;28;20032;-70
2023/10/22 11:08:22;;;;;;;21.10;2.67;;;27.20;99.90;;;;;;5095498;28;20400;-70
2023/10/22 11:10:49;;;;;;;16.00;2.28;;;27.10;99.90;;;;;;5096006;28;20024;-70
2023/10/22 11:13:24;;;;;;;17.60;2.30;;;27.00;99.90;;;;;;5095702;28;20429;-69
2023/10/22 11:15:53;;;;;;;10.90;2.40;;;27.00;99.90;;;;;;5095634;28;20017;-70
2023/10/22 11:18:19;;;;;;;12.32;2.10;;;26.70;99.90;;;;;;5077068;28;20155;-70
2023/10/22 11:20:56;;;;;;;19.50;2.33;;;26.80;99.90;;;;;;5095219;28;20017;-71
2023/10/22 11:23:23;;;;;;;16.67;2.00;;;27.20;99.90;;;;;;5095405;28;20085;-69
2023/10/22 11:25:49;;;;;;;14.88;2.47;;;27.10;99.90;;;;;;5095175;28;20028;-70
2023/10/22 11:28:16;;;;;;;12.75;2.10;;;26.80;99.90;;;;;;5095264;28;20107;-71
2023/10/22 11:30:42;;;;;;;13.30;2.22;;;26.70;99.90;;;;;;5095221;28;20135;-70
2023/10/22 11:33:11;;;;;;;;;;;26.90;99.90;;;;;;5095639;28;20028;-69
2023/10/22 11:35:37;;;;;;;9.07;1.83;;;27.20;99.90;;;;;;5095087;28;19908;-70
2023/10/22 11:38:05;;;;;;;10.57;1.95;;;27.20;99.90;;;;;;5094904;28;20101;-69
2023/10/22 11:40:44;;;;;;;13.25;2.13;;;27.00;99.90;;;;;;5094813;28;20217;-70
2023/10/22 11:43:17;;;;;;;13.20;2.03;;;26.80;99.90;;;;;;5095468;28;20052;-70
2023/10/22 11:45:56;;;;;;;21.83;2.55;;;26.90;99.90;;;;;;5094761;28;20044;-70
2023/10/22 11:48:24;;;;;;;11.60;1.80;;;27.00;99.90;;;;;;5094897;28;20030;-70
2023/10/22 11:50:58;;;;;;;15.27;1.90;;;26.90;99.90;;;;;;5076455;28;20020;-70
2023/10/22 11:53:39;;;;;;;9.90;2.00;;;27.00;99.90;;;;;;5094694;28;20099;-71
2023/10/22 11:56:05;;;;;;;13.18;2.38;;;27.10;99.90;;;;;;5095156;28;20020;-70
2023/10/22 11:58:31;;;;;;;7.57;1.77;;;26.80;99.90;;;;;;5094974;28;20024;-71
2023/10/22 12:00:57;;;;;;;14.10;2.13;;;27.00;99.90;;;;;;5095001;28;20236;-70
2023/10/22 12:03:24;;;;;;;9.88;2.35;;;26.80;99.90;;;;;;5094575;28;20127;-69
2023/10/22 12:05:50;;;;;;;14.88;1.83;;;26.80;99.90;;;;;;5094355;28;20382;-69
2023/10/22 12:08:16;;;;;;;15.52;2.30;;;26.90;99.90;;;;;;5093538;28;20028;-69
2023/10/22 12:10:42;;;;;;;9.30;1.85;;;26.80;99.90;;;;;;5094667;28;20032;-69
2023/10/22 12:13:10;;;;;;;9.00;1.88;;;26.90;99.90;;;;;;5094812;28;20028;-69
2023/10/22 12:15:36;;;;;;;10.20;1.65;;;27.10;99.90;;;;;;5076076;28;20123;-69
2023/10/22 12:18:05;;;;;;;16.80;2.00;;;27.10;99.90;;;;;;5094266;28;20031;-69
2023/10/22 12:20:32;;;;;;;12.00;2.10;;;26.90;99.90;;;;;;5093896;28;20028;-69
2023/10/22 12:22:58;;;;;;;12.65;2.10;;;26.80;99.90;;;;;;5094506;28;20024;-70
2023/10/22 12:25:24;;;;;;;10.88;1.90;;;26.90;99.90;;;;;;5093803;28;20042;-69
2023/10/22 12:27:50;;;;;;;9.95;1.95;;;27.10;99.90;;;;;;5094277;28;20020;-69
2023/10/22 12:30:16;;;;;;;9.65;1.90;;;27.20;99.90;;;;;;5075918;28;20069;-70
2023/10/22 12:32:42;;;;;;;10.32;1.90;;;27.00;99.90;;;;;;5094120;28;20027;-70
2023/10/22 12:35:08;;;;;;;11.35;1.70;;;27.10;99.90;;;;;;5094059;28;20035;-70
2023/10/22 12:37:34;;;;;;;14.90;1.92;;;27.40;99.90;;;;;;5075558;28;20034;-69
2023/10/22 12:40:00;;;;;;;9.70;1.88;;;27.30;99.90;;;;;;5093870;28;20024;-71
2023/10/22 12:42:26;;;;;;;9.85;2.20;;;27.30;99.90;;;;;;5093733;28;20071;-71
2023/10/22 12:44:52;;;;;;;11.15;1.80;;;27.30;99.90;;;;;;5093829;28;20074;-69
2023/10/22 12:47:18;;;;;;;17.05;2.05;;;27.50;99.90;;;;;;5094137;28;20024;-69